createdAt,value
2023-04-22T00:02:17.322Z,18.99
2023-04-22T00:05:20.638Z,19.00
2023-04-22T00:08:23.724Z,18.98
2023-04-22T00:11:27.901Z,18.98
2023-04-22T00:14:30.647Z,18.98
2023-04-22T00:17:33.938Z,18.98
2023-04-22T00:20:36.736Z,19.01
2023-04-22T00:23:39.497Z,19.02
2023-04-22T00:26:43.691Z,19.00
2023-04-22T00:29:47.692Z,19.02
2023-04-22T00:32:50.648Z,18.98
2023-04-22T00:35:54.789Z,18.98
2023-04-22T00:38:57.703Z,19.00
2023-04-22T00:42:03.190Z,19.02
2023-04-22T00:45:06.418Z,18.97
2023-04-22T00:48:09.666Z,18.97
2023-04-22T00:51:12.477Z,18.97
2023-04-22T00:54:15.266Z,18.98
2023-04-22T00:57:19.617Z,18.99
2023-04-22T01:00:27.049Z,18.98
2023-04-22T01:03:30.944Z,18.98
2023-04-22T01:06:35.475Z,18.92
2023-04-22T01:09:40.101Z,18.93
2023-04-22T01:12:44.411Z,18.92
2023-04-22T01:15:47.238Z,18.90
2023-04-22T01:18:50.078Z,18.90
2023-04-22T01:21:53.174Z,18.93
2023-04-22T01:24:57.432Z,18.93
2023-04-22T01:28:00.425Z,18.92
2023-04-22T01:31:03.754Z,18.93
2023-04-22T01:34:07.075Z,18.94
2023-04-22T01:37:09.878Z,18.94
2023-04-22T01:40:15.068Z,18.94
2023-04-22T01:43:17.893Z,18.94
2023-04-22T01:46:20.638Z,18.95
2023-04-22T01:49:23.505Z,18.93
2023-04-22T01:52:27.749Z,18.93
2023-04-22T01:55:36.159Z,18.95
2023-04-22T01:58:40.252Z,18.95
2023-04-22T02:01:43.058Z,18.95
2023-04-22T02:04:45.985Z,18.95
2023-04-22T02:07:48.768Z,18.95
2023-04-22T02:10:52.937Z,18.92
2023-04-22T02:13:55.681Z,18.92
2023-04-22T02:16:58.520Z,18.93
2023-04-22T02:20:01.377Z,18.90
2023-04-22T02:23:04.333Z,18.91
2023-04-22T02:26:08.616Z,18.90
2023-04-22T02:29:11.460Z,18.87
2023-04-22T02:32:14.196Z,18.86
2023-04-22T02:35:17.024Z,18.84
2023-04-22T02:38:20.125Z,18.86
2023-04-22T02:41:24.340Z,18.86
2023-04-22T02:44:27.121Z,18.86
2023-04-22T02:47:29.976Z,18.86
2023-04-22T02:50:32.824Z,18.86
2023-04-22T02:53:35.617Z,18.87
2023-04-22T02:56:39.745Z,18.89
2023-04-22T02:59:42.660Z,18.89
2023-04-22T03:02:45.651Z,18.88
2023-04-22T03:05:48.544Z,18.89
2023-04-22T03:08:51.371Z,18.90
2023-04-22T03:11:55.516Z,18.88
2023-04-22T03:14:58.281Z,18.84
2023-04-22T03:18:01.108Z,18.85
2023-04-22T03:21:05.230Z,18.87
2023-04-22T03:24:08.112Z,18.88
2023-04-22T03:27:12.353Z,18.89
2023-04-22T03:30:15.222Z,18.86
2023-04-22T03:33:18.098Z,18.89
2023-04-22T03:36:21.494Z,18.88
2023-04-22T03:39:24.453Z,18.84
2023-04-22T03:42:28.612Z,18.85
2023-04-22T03:45:31.389Z,18.84
2023-04-22T03:48:35.829Z,18.82
2023-04-22T03:51:38.854Z,18.82
2023-04-22T03:54:41.648Z,18.82
2023-04-22T03:57:45.998Z,18.80
2023-04-22T04:00:48.793Z,18.82
2023-04-22T04:03:51.944Z,18.83
2023-04-22T04:06:54.965Z,18.82
2023-04-22T04:09:57.810Z,18.86
2023-04-22T04:13:01.973Z,18.85
2023-04-22T04:16:04.818Z,18.88
2023-04-22T04:19:07.719Z,18.87
2023-04-22T04:22:11.061Z,18.90
2023-04-22T04:25:13.851Z,18.88
2023-04-22T04:28:17.993Z,18.87
2023-04-22T04:31:21.544Z,18.91
2023-04-22T04:34:24.482Z,18.92
2023-04-22T04:37:27.551Z,18.92
2023-04-22T04:40:30.853Z,18.88
2023-04-22T04:43:35.173Z,18.89
2023-04-22T04:46:38.200Z,18.89
2023-04-22T04:49:41.277Z,18.89
2023-04-22T04:52:44.344Z,18.90
2023-04-22T04:55:47.158Z,18.87
2023-04-22T04:58:51.296Z,18.87
2023-04-22T05:01:54.011Z,18.85
2023-04-22T05:04:56.976Z,18.89
2023-04-22T05:07:59.924Z,18.89
2023-04-22T05:11:02.719Z,18.86
2023-04-22T05:14:06.908Z,18.87
2023-04-22T05:17:09.778Z,18.86
2023-04-22T05:20:12.817Z,18.88
2023-04-22T05:23:15.584Z,18.93
2023-04-22T05:26:18.499Z,18.90
2023-04-22T05:29:22.633Z,18.92
2023-04-22T05:32:25.605Z,18.93
2023-04-22T05:35:28.512Z,18.96
2023-04-22T05:38:37.266Z,18.95
2023-04-22T05:41:40.066Z,18.96
2023-04-22T05:44:44.259Z,18.98
2023-04-22T05:47:47.184Z,18.95
2023-04-22T05:50:50.006Z,18.99
2023-04-22T05:53:52.803Z,19.01
2023-04-22T05:56:55.993Z,19.02
2023-04-22T06:00:00.204Z,19.00
2023-04-22T06:03:03.229Z,19.01
2023-04-22T06:06:06.524Z,19.02
2023-04-22T06:09:09.444Z,19.00
2023-04-22T06:12:12.256Z,19.03
2023-04-22T06:15:16.606Z,19.04
2023-04-22T06:18:19.426Z,19.03
2023-04-22T06:21:22.367Z,19.03
2023-04-22T06:24:25.138Z,19.02
2023-04-22T06:27:27.954Z,19.06
2023-04-22T06:30:32.069Z,19.08
2023-04-22T06:33:34.864Z,19.09
2023-04-22T06:36:38.450Z,19.10
2023-04-22T06:39:43.981Z,19.12
2023-04-22T06:42:46.702Z,19.14
2023-04-22T06:45:51.890Z,19.16
2023-04-22T06:48:54.725Z,19.15
2023-04-22T06:51:57.488Z,19.17
2023-04-22T06:55:00.322Z,19.21
2023-04-22T06:58:03.234Z,19.25
2023-04-22T07:01:07.511Z,19.24
2023-04-22T07:04:10.326Z,19.20
2023-04-22T07:07:13.112Z,19.23
2023-04-22T07:10:15.874Z,19.22
2023-04-22T07:13:18.651Z,19.24
2023-04-22T07:16:22.923Z,19.24
2023-04-22T07:19:25.880Z,19.25
2023-04-22T07:22:28.667Z,19.25
2023-04-22T07:25:31.412Z,19.24
2023-04-22T07:28:34.256Z,19.19
2023-04-22T07:31:38.430Z,19.20
2023-04-22T07:34:41.232Z,19.20
2023-04-22T07:37:44.059Z,19.24
2023-04-22T07:40:46.814Z,19.24
2023-04-22T07:43:49.708Z,19.23
2023-04-22T07:46:54.176Z,19.24
2023-04-22T07:49:57.022Z,19.24
2023-04-22T07:52:59.791Z,19.27
2023-04-22T07:56:03.098Z,19.27
2023-04-22T07:59:05.984Z,19.27
2023-04-22T08:02:10.236Z,19.25
2023-04-22T08:05:13.174Z,19.26
2023-04-22T08:08:16.052Z,19.27
2023-04-22T08:11:18.956Z,19.26
2023-04-22T08:14:21.724Z,19.28
2023-04-22T08:17:26.023Z,19.30
2023-04-22T08:20:28.891Z,19.31
2023-04-22T08:23:32.500Z,19.31
2023-04-22T08:26:35.649Z,19.34
2023-04-22T08:29:38.740Z,19.30
2023-04-22T08:32:43.200Z,19.34
2023-04-22T08:35:46.044Z,19.34
2023-04-22T08:38:50.106Z,19.34
2023-04-22T08:41:52.964Z,19.35
2023-04-22T08:44:55.823Z,19.36
2023-04-22T08:48:00.887Z,19.36
2023-04-22T08:51:04.229Z,19.38
2023-04-22T08:54:07.357Z,19.37
2023-04-22T08:57:11.169Z,19.36
2023-04-22T09:00:15.138Z,19.38
2023-04-22T09:03:19.700Z,19.41
2023-04-22T09:06:23.056Z,19.43
2023-04-22T09:09:26.000Z,19.43
2023-04-22T09:12:28.956Z,19.46
2023-04-22T09:15:32.077Z,19.44
2023-04-22T09:18:41.675Z,19.44
2023-04-22T09:21:45.162Z,19.50
2023-04-22T09:24:51.175Z,19.48
2023-04-22T09:27:54.398Z,19.48
2023-04-22T09:31:01.523Z,19.52
2023-04-22T09:34:05.735Z,19.52
2023-04-22T09:37:08.530Z,19.50
2023-04-22T09:40:16.370Z,19.48
2023-04-22T09:43:20.185Z,19.49
2023-04-22T09:46:23.572Z,19.44
2023-04-22T09:49:28.336Z,19.48
2023-04-22T09:52:34.017Z,19.45
2023-04-22T09:55:37.780Z,19.44
2023-04-22T09:58:40.803Z,19.45
2023-04-22T10:01:43.727Z,19.44
2023-04-22T10:04:48.742Z,19.40
2023-04-22T10:07:51.561Z,19.43
2023-04-22T10:10:55.435Z,19.41
2023-04-22T10:13:58.648Z,19.44
2023-04-22T10:17:02.784Z,19.45
2023-04-22T10:20:09.753Z,19.48
2023-04-22T10:23:14.344Z,19.45
2023-04-22T10:26:31.972Z,19.45
2023-04-22T10:29:37.468Z,19.45
2023-04-22T10:32:40.540Z,19.45
2023-04-22T10:36:04.650Z,19.45
2023-04-22T10:39:17.858Z,19.47
2023-04-22T10:42:21.979Z,19.43
2023-04-22T10:45:26.648Z,19.45
2023-04-22T10:48:46.903Z,19.45
2023-04-22T10:51:51.587Z,19.49
2023-04-22T10:55:01.372Z,19.49
2023-04-22T10:58:04.151Z,19.53
2023-04-22T11:01:15.776Z,19.53
2023-04-22T11:04:22.656Z,19.49
2023-04-22T11:07:35.436Z,19.49
2023-04-22T11:10:43.789Z,19.47
2023-04-22T11:13:50.848Z,19.52
2023-04-22T11:16:54.078Z,19.47
2023-04-22T11:19:57.649Z,19.50
2023-04-22T11:23:03.641Z,19.52
2023-04-22T11:26:07.488Z,19.50
2023-04-22T11:29:10.277Z,19.50
2023-04-22T11:32:13.101Z,19.53
2023-04-22T11:35:16.635Z,19.56
2023-04-22T11:38:20.779Z,19.58
2023-04-22T11:41:23.879Z,19.56
2023-04-22T11:44:26.867Z,19.57
2023-04-22T11:47:30.651Z,19.58
2023-04-22T11:50:37.699Z,19.56
2023-04-22T11:53:50.795Z,19.59
2023-04-22T11:56:53.610Z,19.56
2023-04-22T12:00:00.087Z,19.58
2023-04-22T12:03:04.096Z,19.57
2023-04-22T12:06:07.203Z,19.58
2023-04-22T12:09:14.026Z,19.55
2023-04-22T12:12:16.906Z,19.60
2023-04-22T12:15:19.733Z,19.58
2023-04-22T12:18:29.345Z,19.50
2023-04-22T12:21:32.229Z,19.54
2023-04-22T12:24:36.365Z,19.56
2023-04-22T12:27:39.157Z,19.55
2023-04-22T12:30:42.436Z,19.53
2023-04-22T12:33:45.897Z,19.54
2023-04-22T12:36:48.726Z,19.52
2023-04-22T12:39:52.832Z,19.56
2023-04-22T12:42:55.568Z,19.53
2023-04-22T12:45:58.681Z,19.56
2023-04-22T12:49:01.602Z,19.59
2023-04-22T12:52:04.380Z,19.59
2023-04-22T12:55:09.287Z,19.60
2023-04-22T12:58:12.356Z,19.60
2023-04-22T13:01:15.218Z,19.63
2023-04-22T13:04:19.489Z,19.66
2023-04-22T13:07:22.420Z,19.65
2023-04-22T13:10:28.333Z,19.63
2023-04-22T13:13:31.123Z,19.64
2023-04-22T13:16:33.972Z,19.65
2023-04-22T13:19:36.837Z,19.68
2023-04-22T13:22:40.635Z,19.68
2023-04-22T13:25:44.801Z,19.70
2023-04-22T13:28:47.669Z,19.73
2023-04-22T13:31:50.455Z,19.70
2023-04-22T13:34:53.527Z,19.72
2023-04-22T13:37:56.257Z,19.75
2023-04-22T13:41:02.008Z,19.71
2023-04-22T13:44:06.080Z,19.71
2023-04-22T13:47:08.868Z,19.76
2023-04-22T13:50:12.041Z,19.67
2023-04-22T13:53:14.860Z,19.69
2023-04-22T13:56:18.985Z,19.74
2023-04-22T13:59:21.851Z,19.78
2023-04-22T14:02:24.744Z,19.80
2023-04-22T14:05:27.629Z,19.83
2023-04-22T14:08:30.415Z,19.78
2023-04-22T14:11:34.705Z,19.83
2023-04-22T14:14:37.425Z,19.85
2023-04-22T14:17:40.349Z,19.84
2023-04-22T14:20:45.268Z,19.86
2023-04-22T14:23:48.002Z,19.90
2023-04-22T14:26:52.655Z,19.86
2023-04-22T14:29:55.509Z,19.89
2023-04-22T14:32:58.440Z,19.89
2023-04-22T14:36:01.241Z,19.87
2023-04-22T14:39:04.002Z,19.88
2023-04-22T14:42:08.207Z,19.89
2023-04-22T14:45:11.415Z,19.86
2023-04-22T14:48:14.489Z,19.84
2023-04-22T14:51:17.298Z,19.81
2023-04-22T14:54:20.153Z,19.83
2023-04-22T14:57:24.227Z,19.83
2023-04-22T15:00:27.471Z,19.79
2023-04-22T15:03:30.787Z,19.79
2023-04-22T15:06:33.997Z,19.79
2023-04-22T15:09:36.784Z,19.83
2023-04-22T15:12:40.967Z,19.83
2023-04-22T15:15:43.775Z,19.85
2023-04-22T15:18:46.652Z,19.85
2023-04-22T15:21:49.560Z,19.76
2023-04-22T15:24:52.431Z,19.77
2023-04-22T15:27:57.219Z,19.77
2023-04-22T15:31:00.004Z,19.75
2023-04-22T15:34:02.904Z,19.71
2023-04-22T15:37:05.726Z,19.71
2023-04-22T15:40:10.173Z,19.88
2023-04-22T15:43:14.369Z,19.71
2023-04-22T15:46:17.133Z,19.79
2023-04-22T15:49:19.932Z,19.85
2023-04-22T15:52:22.701Z,19.74
2023-04-22T15:55:25.669Z,19.68
2023-04-22T15:58:32.446Z,19.81
2023-04-22T16:01:39.632Z,19.73
2023-04-22T16:04:43.472Z,19.68
2023-04-22T16:07:46.465Z,19.78
2023-04-22T16:10:49.315Z,19.63
2023-04-22T16:13:53.578Z,19.69
2023-04-22T16:16:56.501Z,19.68
2023-04-22T16:19:59.384Z,19.70
2023-04-22T16:23:02.132Z,19.67
2023-04-22T16:26:05.870Z,19.65
2023-04-22T16:29:10.003Z,19.65
2023-04-22T16:32:12.874Z,19.70
2023-04-22T16:35:15.629Z,19.61
2023-04-22T16:38:18.638Z,19.63
2023-04-22T16:41:21.657Z,19.74
2023-04-22T16:44:25.881Z,19.66
2023-04-22T16:47:28.750Z,19.65
2023-04-22T16:50:31.559Z,19.64
2023-04-22T16:53:34.380Z,19.61
2023-04-22T16:56:37.679Z,19.52
2023-04-22T16:59:42.123Z,19.46
2023-04-22T17:02:45.611Z,19.50
2023-04-22T17:05:48.381Z,19.39
2023-04-22T17:08:52.710Z,19.48
2023-04-22T17:11:56.396Z,19.45
2023-04-22T17:15:00.488Z,19.38
2023-04-22T17:18:05.822Z,19.39
2023-04-22T17:21:08.680Z,19.47
2023-04-22T17:24:11.564Z,19.43
2023-04-22T17:27:15.901Z,19.47
2023-04-22T17:30:20.217Z,19.44
2023-04-22T17:33:22.987Z,19.46
2023-04-22T17:36:25.864Z,19.46
2023-04-22T17:39:28.555Z,19.48
2023-04-22T17:42:44.634Z,19.45
2023-04-22T17:45:50.189Z,19.38
2023-04-22T17:48:52.934Z,19.42
2023-04-22T17:51:55.749Z,19.51
2023-04-22T17:54:59.920Z,19.40
2023-04-22T17:58:02.855Z,19.32
2023-04-22T18:01:07.436Z,19.33
2023-04-22T18:04:10.343Z,19.29
2023-04-22T18:07:13.257Z,19.29
2023-04-22T18:10:16.041Z,19.33
2023-04-22T18:13:18.786Z,19.31
2023-04-22T18:16:23.098Z,19.33
2023-04-22T18:19:25.911Z,19.38
2023-04-22T18:22:29.147Z,19.42
2023-04-22T18:25:31.882Z,19.35
2023-04-22T18:28:34.695Z,19.30
2023-04-22T18:31:38.869Z,19.28
2023-04-22T18:34:42.121Z,19.36
2023-04-22T18:37:45.149Z,19.36
2023-04-22T18:40:47.939Z,19.44
2023-04-22T18:43:50.791Z,19.37
2023-04-22T18:46:58.498Z,19.39
2023-04-22T18:50:01.386Z,19.59
2023-04-22T18:53:04.173Z,19.45
2023-04-22T18:56:07.220Z,19.40
2023-04-22T18:59:10.133Z,19.39
2023-04-22T19:02:14.591Z,19.40
2023-04-22T19:05:18.161Z,19.43
2023-04-22T19:08:21.166Z,19.41
2023-04-22T19:11:24.680Z,19.42
2023-04-22T19:14:37.914Z,19.43
2023-04-22T19:17:42.893Z,19.45
2023-04-22T19:20:46.312Z,19.46
2023-04-22T19:23:52.904Z,19.38
2023-04-22T19:26:58.135Z,19.45
2023-04-22T19:30:01.173Z,19.49
2023-04-22T19:33:05.622Z,19.74
2023-04-22T19:36:08.482Z,19.78
2023-04-22T19:39:11.250Z,19.71
2023-04-22T19:42:14.088Z,19.74
2023-04-22T19:45:16.992Z,19.73
2023-04-22T19:48:28.133Z,19.75
2023-04-22T19:51:31.053Z,19.72
2023-04-22T19:54:33.999Z,19.75
2023-04-22T19:57:37.108Z,19.74
2023-04-22T20:00:40.245Z,19.75
2023-04-22T20:03:45.137Z,19.86
2023-04-22T20:06:48.875Z,19.82
2023-04-22T20:09:53.488Z,19.79
2023-04-22T20:12:56.485Z,19.79
2023-04-22T20:16:01.491Z,19.79
2023-04-22T20:19:05.984Z,19.80
2023-04-22T20:22:11.598Z,19.80
2023-04-22T20:25:18.093Z,19.82
2023-04-22T20:28:20.978Z,19.81
2023-04-22T20:31:24.172Z,19.77
2023-04-22T20:34:30.423Z,19.82
2023-04-22T20:37:34.040Z,19.78
2023-04-22T20:40:37.128Z,19.80
2023-04-22T20:43:40.000Z,19.79
2023-04-22T20:46:42.782Z,19.81
2023-04-22T20:49:46.897Z,19.82
2023-04-22T20:52:49.812Z,19.79
2023-04-22T20:55:52.596Z,19.85
2023-04-22T20:58:55.375Z,19.80
2023-04-22T21:01:59.104Z,19.79
2023-04-22T21:05:03.991Z,19.78
2023-04-22T21:08:07.154Z,19.81
2023-04-22T21:11:10.180Z,19.81
2023-04-22T21:14:13.334Z,19.77
2023-04-22T21:17:20.549Z,19.79
2023-04-22T21:20:27.130Z,19.79
2023-04-22T21:23:30.274Z,19.84
2023-04-22T21:26:34.105Z,19.81
2023-04-22T21:29:38.216Z,19.82
2023-04-22T21:32:42.244Z,19.80
2023-04-22T21:35:46.481Z,19.84
2023-04-22T21:38:49.407Z,19.80
2023-04-22T21:41:52.175Z,19.80
2023-04-22T21:44:54.968Z,19.82
2023-04-22T21:47:59.180Z,19.81
2023-04-22T21:51:04.175Z,19.79
2023-04-22T21:54:07.346Z,19.77
2023-04-22T21:57:10.110Z,19.75
2023-04-22T22:00:16.399Z,19.80
2023-04-22T22:03:19.325Z,19.78
2023-04-22T22:06:23.914Z,19.79
2023-04-22T22:09:26.905Z,19.81
2023-04-22T22:12:29.685Z,19.79
2023-04-22T22:15:32.469Z,19.76
2023-04-22T22:18:35.780Z,19.76
2023-04-22T22:21:39.906Z,19.74
2023-04-22T22:24:43.034Z,19.71
2023-04-22T22:27:47.320Z,19.74
2023-04-22T22:30:50.184Z,19.75
2023-04-22T22:33:52.970Z,19.74
2023-04-22T22:36:57.137Z,19.73
2023-04-22T22:39:59.854Z,19.76
2023-04-22T22:43:02.680Z,19.74
2023-04-22T22:46:05.489Z,19.72
2023-04-22T22:49:08.461Z,19.76
2023-04-22T22:52:12.622Z,19.74
2023-04-22T22:55:15.467Z,19.75
2023-04-22T22:58:18.235Z,19.73
2023-04-22T23:01:21.136Z,19.76
2023-04-22T23:04:24.379Z,19.74
2023-04-22T23:07:28.734Z,19.77
2023-04-22T23:10:31.588Z,19.71
2023-04-22T23:13:34.328Z,19.75
2023-04-22T23:16:38.195Z,19.73
2023-04-22T23:19:42.509Z,19.75
2023-04-22T23:22:48.854Z,19.77
2023-04-22T23:25:51.984Z,19.76
2023-04-22T23:28:55.481Z,19.73
2023-04-22T23:32:01.153Z,19.73
2023-04-22T23:35:04.874Z,19.70
2023-04-22T23:38:11.086Z,19.70
2023-04-22T23:41:13.997Z,19.67
2023-04-22T23:44:16.731Z,19.68
2023-04-22T23:47:19.620Z,19.63
2023-04-22T23:50:22.482Z,19.65
2023-04-22T23:53:26.638Z,19.63
2023-04-22T23:56:29.756Z,19.70
2023-04-22T23:59:32.855Z,19.68
